Wautoma, WI (54982)

6:55 PM CDT on March 30, 2015 (GMT -0500)
RAWS | | Change Station
CLOSE
Current Station
Personal Weather Station
Location: Wautoma, WI
Elevation: 856 ft
Nearby Weather Stations

Elev 856 ft 44.06 °N, 89.29 °W | Updated 43 minutes ago

Partly Cloudy
Partly Cloudy
46 °F
Feels Like 46 °F
N
1
Wind Variable Wind from ESE
Gusts 5.0 mph

Today
High -- | Low -- °F
--% Chance of Precip.
Yesterday
High -- | Low -- °F
Precip. -- in
6:42 AM 7:21 PM
Waxing Gibbous, 83% visible
Pressure 29.89 in
Visibility 10.0 miles
Clouds Few 8500 ft
Windchill 46 °F
Dew Point 46 °F
Humidity 100%
Rainfall in
Snow Depth Not available.
UV 1 out of 12
Pollen 7.90 out of 12
Air Quality Not available.
Flu Activity Not available.
METAR KY50 302256Z AUTO 00000KT 10SM FEW085 08/07 A2988 RMK AO2 TSNO T00770066 RAB2158E00 P0000 SLP121

More Conditions Fewer Conditions

Pressure 29.89 in
Visibility 10.0 miles
Clouds Few 8500 ft
Windchill 46 °F
Dew Point 46 °F
Humidity 100%
Rainfall in
Snow Depth Not available.
UV 1 out of 12
Pollen 7.90 out of 12
Air Quality Not available.
Flu Activity Not available.
METAR KY50 302256Z AUTO 00000KT 10SM FEW085 08/07 A2988 RMK AO2 TSNO T00770066 RAB2158E00 P0000 SLP121

More Conditions Fewer Conditions

10-Day Weather Forecast

Almanac

Astronomy

Mar. 30, 2015 Rise Set
Actual Time
Civil Twilight
Nautical Twilight
Astronomical Twilight
Moon
Length of Visible Light
Length of Day
Tomorrow will be .
, % of the Moon is Illuminated

Today's Extremes

State Highs State Lows

Community

WunderPhotos

Upload Photos

1,809,618 photos uploaded!

WunderBlogs® & News

Nearby

Air Quality

  Air Quality AQ Index Pollutant
Not available.

Snow Depth

Station Depth Elevation

Earthquake Activity

City Distance Mag. Time & Date
Minimum magnitude displayed is 2.5.

Coastal Water Temperatures

Place Temperature

Stations

Nearby Weather Stations

Station Location Temp. Windchill Dew Point Humidity Wind Precip. Elev Updated Type